Time;durP1;ratioP1;P1;durP2;ratioP2;P2;SDS_P1;SDS_P2;PMS_P1;PMS_P2;Temp;Humidity;BMP_temperature;BMP_pressure;BME280_temperature;BME280_humidity;BME280_pressure;Samples;Min_cycle;Max_cycle;Signal;HPM_P1;HPM_P2
2022/10/01 00:03:03;;;;;;;3.07;2.80;;;14.10;95.00;;;;;;4998790;28;20484;-82
2022/10/01 00:05:57;;;;;;;4.50;3.20;;;14.00;95.10;;;;;;4997712;28;20458;-82
2022/10/01 00:08:44;;;;;;;4.30;3.03;;;14.00;95.30;;;;;;4995459;28;20469;-81
2022/10/01 00:12:30;;;;;;;3.43;3.13;;;14.00;95.70;;;;;;5002665;28;20453;-81
2022/10/01 00:24:17;;;;;;;3.67;3.33;;;14.00;95.90;;;;;;5003966;28;20496;-80
2022/10/01 00:27:32;;;;;;;3.27;3.00;;;13.90;95.70;;;;;;5009010;28;20462;-81
2022/10/01 00:31:03;;;;;;;3.30;2.80;;;13.80;96.00;;;;;;4940578;29;20473;-81
2022/10/01 00:37:44;;;;;;;3.30;3.00;;;14.00;96.00;;;;;;4938758;29;20493;-81
2022/10/01 00:41:08;;;;;;;5.43;2.67;;;14.10;96.40;;;;;;4925600;29;20650;-83
2022/10/01 00:44:20;;;;;;;4.30;3.10;;;14.10;96.90;;;;;;4925603;29;20480;-80
2022/10/01 00:47:43;;;;;;;4.13;3.83;;;14.20;97.50;;;;;;4936615;29;20504;-81
2022/10/01 00:50:50;;;;;;;5.90;4.03;;;14.20;97.90;;;;;;4929083;29;20452;-83
2022/10/01 00:53:40;;;;;;;4.30;3.90;;;14.10;98.50;;;;;;4909435;28;20480;-81
2022/10/01 00:57:00;;;;;;;4.10;3.67;;;14.10;99.10;;;;;;4941255;29;20548;-82
2022/10/01 01:00:26;;;;;;;4.43;4.03;;;14.00;99.70;;;;;;4885589;29;20520;-80
2022/10/01 01:03:19;;;;;;;4.43;4.00;;;13.90;99.90;;;;;;5010764;28;20458;-81
2022/10/01 01:13:53;;;;;;;3.97;3.67;;;13.70;99.90;;;;;;5011474;28;20500;-82
2022/10/01 01:16:51;;;;;;;4.40;4.00;;;13.60;99.90;;;;;;5015739;28;20549;-83
2022/10/01 01:20:27;;;;;;;4.80;4.30;;;13.60;99.90;;;;;;5012071;28;20434;-82
2022/10/01 01:23:35;;;;;;;3.83;3.53;;;13.60;99.90;;;;;;5011802;28;21729;-82
2022/10/01 01:26:57;;;;;;;4.03;3.60;;;13.50;99.90;;;;;;5007574;28;20460;-82
2022/10/01 01:30:17;;;;;;;5.10;4.57;;;13.40;99.90;;;;;;5020422;28;20466;-82
2022/10/01 01:33:12;;;;;;;4.27;3.90;;;13.30;99.90;;;;;;5001991;28;22366;-82
2022/10/01 01:36:31;;;;;;;3.83;3.50;;;13.30;99.90;;;;;;4999120;28;21285;-81
2022/10/01 01:40:09;;;;;;;;;;;;;;;;;;;;;
2022/10/01 01:50:50;;;;;;;2.90;2.70;;;13.20;99.90;;;;;;4929294;29;20954;-83
2022/10/01 01:53:49;;;;;;;2.80;2.60;;;13.30;99.90;;;;;;4925206;29;20568;-82
2022/10/01 01:56:54;;;;;;;4.33;3.80;;;13.30;99.90;;;;;;4934184;29;20454;-83
2022/10/01 02:02:44;;;;;;;3.13;2.93;;;13.20;99.90;;;;;;5021140;28;21765;-81
2022/10/01 02:09:17;;;;;;;3.10;2.80;;;13.20;99.90;;;;;;4945936;28;20452;-80
2022/10/01 02:16:19;;;;;;;4.23;2.50;;;13.10;99.90;;;;;;4944614;29;20564;-82
2022/10/01 02:19:17;;;;;;;3.13;2.83;;;13.10;99.90;;;;;;4952367;28;20995;-83
2022/10/01 02:25:09;;;;;;;3.63;3.33;;;13.00;99.90;;;;;;4996137;28;20528;-82
2022/10/01 02:28:17;;;;;;;4.60;3.20;;;12.90;99.90;;;;;;5003262;28;20454;-82
2022/10/01 02:30:57;;;;;;;2.80;2.60;;;13.00;99.90;;;;;;5003734;28;20458;-80
2022/10/01 02:33:47;;;;;;;2.90;2.50;;;13.00;99.90;;;;;;5001207;28;20512;-81
2022/10/01 02:39:44;;;;;;;;;;;;;;;;;;;;;
2022/10/01 02:42:27;;;;;;;4.40;3.63;;;12.90;99.90;;;;;;5006751;28;20465;-83
2022/10/01 02:45:01;;;;;;;3.97;3.20;;;13.00;99.90;;;;;;5004656;28;20489;-84
2022/10/01 02:48:08;;;;;;;6.73;2.70;;;13.00;99.90;;;;;;5006636;28;20484;-83
2022/10/01 02:51:26;;;;;;;2.30;2.10;;;13.00;99.90;;;;;;5007733;28;20870;-82
2022/10/01 02:54:41;;;;;;;3.27;2.97;;;13.00;99.90;;;;;;4989840;28;20489;-82
2022/10/01 02:57:41;;;;;;;2.77;2.57;;;13.00;99.90;;;;;;5000363;28;20517;-83
2022/10/01 03:00:29;;;;;;;3.27;2.97;;;13.00;99.90;;;;;;5015136;28;20446;-84
2022/10/01 03:03:31;;;;;;;3.40;3.10;;;13.00;99.90;;;;;;5011238;28;20497;-82
2022/10/01 03:06:12;;;;;;;3.30;2.40;;;13.00;99.90;;;;;;5013045;28;20501;-83
2022/10/01 03:09:13;;;;;;;6.40;3.07;;;13.10;99.90;;;;;;5019299;28;20496;-83
2022/10/01 03:11:52;;;;;;;2.70;2.50;;;13.00;99.90;;;;;;5018487;28;20473;-82
2022/10/01 03:14:23;;;;;;;3.30;3.10;;;13.00;99.90;;;;;;5023994;28;20477;-81
2022/10/01 03:20:12;;;;;;;3.00;2.80;;;13.00;99.90;;;;;;5024689;28;20489;-82
2022/10/01 03:22:53;;;;;;;3.23;2.83;;;13.00;99.90;;;;;;5021848;28;20462;-82
2022/10/01 03:25:20;;;;;;;2.43;2.33;;;12.80;99.90;;;;;;5024300;28;20472;-81
2022/10/01 03:28:22;;;;;;;3.87;2.57;;;12.80;99.90;;;;;;5025093;28;20470;-81
2022/10/01 03:31:12;;;;;;;2.33;2.20;;;12.90;99.90;;;;;;5025458;28;20529;-83
2022/10/01 03:33:58;;;;;;;2.47;2.27;;;13.10;99.90;;;;;;5023970;28;22326;-82
2022/10/01 03:36:37;;;;;;;2.10;2.00;;;13.10;99.90;;;;;;5025020;28;20461;-81
2022/10/01 03:39:48;;;;;;;3.77;2.47;;;13.10;99.90;;;;;;5023426;28;20469;-80
2022/10/01 03:42:31;;;;;;;2.33;2.13;;;13.00;99.90;;;;;;5024592;28;20450;-81
2022/10/01 03:45:12;;;;;;;3.30;3.00;;;13.00;99.90;;;;;;5027652;28;20469;-82
2022/10/01 03:47:56;;;;;;;2.60;2.40;;;13.00;99.90;;;;;;5024317;28;20438;-81
2022/10/01 03:50:46;;;;;;;2.37;2.17;;;13.10;99.90;;;;;;5006239;28;20452;-81
2022/10/01 03:53:20;;;;;;;2.47;2.37;;;13.00;99.90;;;;;;4989701;28;20492;-81
2022/10/01 03:56:04;;;;;;;2.47;2.17;;;12.90;99.90;;;;;;4995272;28;21379;-81
2022/10/01 03:58:40;;;;;;;2.70;2.20;;;12.80;99.90;;;;;;4982674;28;20577;-82
2022/10/01 04:01:13;;;;;;;2.20;2.10;;;12.90;99.90;;;;;;5018125;28;20469;-80
2022/10/01 04:03:49;;;;;;;2.30;2.10;;;13.00;99.90;;;;;;5013346;28;21055;-83
2022/10/01 04:06:19;;;;;;;2.70;2.50;;;12.90;99.90;;;;;;5020069;28;20466;-83
2022/10/01 04:08:51;;;;;;;2.00;1.70;;;13.00;99.90;;;;;;5013702;28;20458;-83
2022/10/01 04:11:20;;;;;;;1.83;1.73;;;13.00;99.90;;;;;;5017213;28;20577;-82
2022/10/01 04:14:02;;;;;;;1.27;1.17;;;13.00;99.90;;;;;;5032517;28;20573;-84
2022/10/01 04:19:56;;;;;;;2.93;1.37;;;12.90;99.90;;;;;;4998926;28;20476;-83
2022/10/01 04:23:07;;;;;;;0.93;0.87;;;13.00;99.90;;;;;;5008792;28;20557;-82
2022/10/01 04:26:19;;;;;;;0.93;0.93;;;13.00;99.90;;;;;;5021238;28;20460;-84
2022/10/01 04:28:54;;;;;;;1.17;0.80;;;13.10;99.90;;;;;;5005944;28;20438;-82
2022/10/01 04:31:33;;;;;;;2.50;1.07;;;13.10;99.90;;;;;;5005228;28;20459;-83
2022/10/01 04:37:26;;;;;;;0.93;0.83;;;13.00;99.90;;;;;;5008429;28;22044;-84
2022/10/01 04:40:24;;;;;;;0.70;0.70;;;13.10;99.90;;;;;;5005044;28;20477;-83
2022/10/01 04:43:21;;;;;;;0.77;0.77;;;13.10;99.90;;;;;;5028885;28;20493;-82
2022/10/01 04:46:01;;;;;;;0.70;0.60;;;13.10;99.90;;;;;;5028927;28;20457;-82
2022/10/01 04:49:16;;;;;;;0.70;0.60;;;13.00;99.90;;;;;;5010016;28;21113;-83
2022/10/01 04:52:48;;;;;;;;;;;;;;;;;;;;;
2022/10/01 04:55:34;;;;;;;1.73;0.50;;;13.20;99.90;;;;;;4998128;28;20560;-82
2022/10/01 04:58:50;;;;;;;1.13;0.70;;;13.20;99.90;;;;;;4999541;28;20556;-83
2022/10/01 05:01:52;;;;;;;1.60;0.30;;;13.20;99.90;;;;;;5000322;28;20552;-80
2022/10/01 05:05:12;;;;;;;1.80;0.50;;;13.40;99.90;;;;;;5002807;28;20600;-82
2022/10/01 05:08:24;;;;;;;0.60;0.40;;;13.40;99.90;;;;;;5001293;28;20602;-82
2022/10/01 05:11:01;;;;;;;1.17;0.53;;;13.50;99.90;;;;;;4996544;28;20812;-82
2022/10/01 05:13:56;;;;;;;0.40;0.40;;;13.50;99.90;;;;;;4999193;28;20492;-81
2022/10/01 05:16:54;;;;;;;0.50;0.50;;;13.40;99.90;;;;;;5001432;28;20466;-83
2022/10/01 05:19:55;;;;;;;0.60;0.40;;;13.50;99.90;;;;;;4997870;28;20449;-83
2022/10/01 05:22:59;;;;;;;0.50;0.50;;;13.50;99.90;;;;;;4993595;28;20518;-82
2022/10/01 05:26:24;;;;;;;1.20;0.50;;;13.50;99.90;;;;;;4905110;29;22181;-83
2022/10/01 05:29:23;;;;;;;0.50;0.40;;;13.40;99.90;;;;;;4893216;29;20562;-83
2022/10/01 05:32:52;;;;;;;;;;;;;;;;;;;;;
2022/10/01 05:35:52;;;;;;;0.50;0.50;;;13.60;99.90;;;;;;4807783;29;20603;-81
2022/10/01 05:38:31;;;;;;;1.10;0.70;;;13.50;99.90;;;;;;4814104;29;20478;-82
2022/10/01 05:41:27;;;;;;;0.73;0.60;;;13.60;99.90;;;;;;4816404;29;20470;-82
2022/10/01 05:44:03;;;;;;;0.67;0.67;;;13.50;99.90;;;;;;4877236;29;20512;-83
2022/10/01 05:46:45;;;;;;;;;;;;;;;;;;;;;
2022/10/01 05:50:13;;;;;;;1.17;0.60;;;13.50;99.90;;;;;;4925417;29;20473;-82
2022/10/01 05:53:26;;;;;;;0.50;0.50;;;13.50;99.90;;;;;;4904880;29;20641;-83
2022/10/01 05:56:24;;;;;;;0.50;0.50;;;13.50;99.90;;;;;;4905836;29;20475;-82
2022/10/01 05:59:17;;;;;;;0.67;0.50;;;13.50;99.90;;;;;;4910032;29;20537;-82
2022/10/01 06:05:53;;;;;;;0.87;0.50;;;13.70;99.90;;;;;;1395573;26;20493;-83
2022/10/01 06:08:46;;;;;;;1.03;0.47;;;13.70;99.90;;;;;;4999258;28;20834;-81
2022/10/01 06:15:21;;;;;;;0.53;0.53;;;13.80;99.90;;;;;;5027432;28;20470;-81
2022/10/01 06:21:09;;;;;;;0.40;0.40;;;13.80;99.90;;;;;;4990173;28;20432;-82
2022/10/01 06:24:08;;;;;;;0.67;0.40;;;13.80;99.90;;;;;;5009305;28;21153;-82
2022/10/01 06:26:51;;;;;;;0.40;0.40;;;13.60;99.90;;;;;;4999961;28;20465;-82
2022/10/01 06:29:21;;;;;;;0.60;0.50;;;13.90;99.90;;;;;;5018855;28;20521;-82
2022/10/01 06:32:36;;;;;;;0.30;0.30;;;13.80;99.90;;;;;;4977258;28;20977;-82
2022/10/01 06:35:16;;;;;;;0.40;0.30;;;14.00;99.90;;;;;;5019259;28;20486;-82
2022/10/01 06:37:54;;;;;;;0.97;0.40;;;13.90;99.90;;;;;;5002618;28;20461;-83
2022/10/01 06:40:41;;;;;;;0.40;0.40;;;14.00;99.90;;;;;;5016887;28;20453;-82
2022/10/01 06:43:28;;;;;;;0.90;0.50;;;13.90;99.90;;;;;;5003326;28;20589;-82
2022/10/01 06:46:20;;;;;;;0.50;0.40;;;14.00;99.90;;;;;;5012610;28;21652;-82
2022/10/01 06:49:21;;;;;;;0.37;0.37;;;14.00;99.90;;;;;;5016032;28;20458;-84
2022/10/01 06:55:50;;;;;;;0.63;0.60;;;13.90;99.90;;;;;;4983321;28;21704;-83
2022/10/01 06:58:58;;;;;;;0.40;0.40;;;14.00;99.90;;;;;;5018475;28;20465;-83
2022/10/01 07:01:41;;;;;;;;;;;;;;;;;;;;;
2022/10/01 07:11:23;;;;;;;0.50;0.40;;;14.00;99.90;;;;;;4996012;28;21101;-83
2022/10/01 07:14:34;;;;;;;0.83;0.50;;;14.20;99.90;;;;;;4998128;28;20494;-81
2022/10/01 07:24:27;;;;;;;0.80;0.43;;;14.10;99.90;;;;;;4981638;28;20561;-81
2022/10/01 07:27:24;;;;;;;0.57;0.40;;;14.20;99.90;;;;;;4995117;28;20438;-83
2022/10/01 07:30:00;;;;;;;0.80;0.50;;;14.30;99.90;;;;;;5018074;28;20451;-82
2022/10/01 07:33:55;;;;;;;;;;;;;;;;;;;;;
2022/10/01 07:36:55;;;;;;;0.70;0.60;;;14.40;99.90;;;;;;4999471;28;20427;-81
2022/10/01 07:39:50;;;;;;;1.00;0.90;;;14.50;99.90;;;;;;4995244;28;20493;-82
2022/10/01 07:46:51;;;;;;;0.70;0.60;;;14.60;99.90;;;;;;4986783;28;20430;-81
2022/10/01 07:49:56;;;;;;;0.60;0.60;;;14.70;99.90;;;;;;5013258;28;20612;-82
2022/10/01 07:53:18;;;;;;;0.80;0.70;;;14.80;99.90;;;;;;5000230;28;20470;-83
2022/10/01 07:56:08;;;;;;;0.97;0.80;;;14.70;99.90;;;;;;4996326;28;20677;-83
2022/10/01 07:59:15;;;;;;;;;;;;;;;;;;;;;
2022/10/01 08:02:25;;;;;;;1.03;0.50;;;14.80;99.90;;;;;;4981131;28;20474;-82
2022/10/01 08:05:40;;;;;;;2.23;0.70;;;14.90;99.90;;;;;;4991910;28;20532;-83
2022/10/01 08:08:39;;;;;;;1.30;0.80;;;14.80;99.90;;;;;;4954085;28;20473;-82
2022/10/01 08:11:28;;;;;;;0.60;0.50;;;14.90;99.90;;;;;;4959976;28;20460;-83
2022/10/01 08:18:02;;;;;;;2.80;0.57;;;14.80;99.90;;;;;;4905306;29;20451;-84
2022/10/01 08:21:24;;;;;;;0.70;0.70;;;14.90;99.90;;;;;;4892080;29;21060;-82
2022/10/01 08:28:50;;;;;;;;;;;;;;;;;;;;;
2022/10/01 08:31:39;;;;;;;0.83;0.60;;;15.20;99.90;;;;;;4829013;29;20465;-83
2022/10/01 08:34:45;;;;;;;0.70;0.60;;;15.30;99.90;;;;;;4827084;29;22254;-82
2022/10/01 08:38:20;;;;;;;0.70;0.70;;;15.30;99.90;;;;;;4887698;29;20447;-82
2022/10/01 08:45:06;;;;;;;0.60;0.60;;;15.40;99.90;;;;;;4931744;28;21648;-82
2022/10/01 08:48:20;;;;;;;0.50;0.50;;;15.50;99.90;;;;;;4942374;28;20560;-81
2022/10/01 08:51:30;;;;;;;1.30;0.70;;;15.50;99.90;;;;;;4954504;28;20453;-82
2022/10/01 08:55:06;;;;;;;0.87;0.70;;;15.60;99.90;;;;;;4972511;28;20475;-83
2022/10/01 08:58:33;;;;;;;0.70;0.60;;;15.60;99.90;;;;;;4964132;28;20461;-84
2022/10/01 09:01:50;;;;;;;;;;;;;;;;;;;;;
2022/10/01 09:05:07;;;;;;;1.77;0.70;;;15.90;99.90;;;;;;4942694;28;20584;-81
2022/10/01 09:08:42;;;;;;;0.70;0.70;;;15.90;99.90;;;;;;4940583;28;21078;-83
2022/10/01 09:11:57;;;;;;;1.17;0.50;;;16.30;99.90;;;;;;4934921;28;21589;-82
2022/10/01 09:14:54;;;;;;;2.40;1.00;;;16.20;99.90;;;;;;4954480;28;20487;-82
2022/10/01 09:17:50;;;;;;;2.40;1.10;;;15.70;99.90;;;;;;4981949;28;20469;-81
2022/10/01 09:21:20;;;;;;;2.57;1.10;;;15.60;99.90;;;;;;4988172;28;20454;-83
2022/10/01 09:24:53;;;;;;;1.57;0.77;;;15.50;99.90;;;;;;4987156;22;20518;-82
2022/10/01 09:27:39;;;;;;;1.93;1.13;;;15.50;99.90;;;;;;5029975;28;20466;-82
2022/10/01 09:30:36;;;;;;;2.87;2.57;;;15.40;99.90;;;;;;5038918;28;20563;-82
2022/10/01 09:34:00;;;;;;;4.20;1.40;;;15.40;99.90;;;;;;5059778;22;20504;-83
2022/10/01 09:37:18;;;;;;;1.60;0.87;;;15.50;99.90;;;;;;5048684;28;20464;-81
2022/10/01 09:40:43;;;;;;;2.10;1.50;;;15.70;99.90;;;;;;5035242;28;20447;-83
2022/10/01 09:48:10;;;;;;;2.60;1.17;;;15.70;99.90;;;;;;4972453;28;20449;-83
2022/10/01 09:52:00;;;;;;;;;;;;;;;;;;;;;
2022/10/01 10:28:49;;;;;;;2.90;2.13;;;19.20;97.80;;;;;;5037444;28;20487;-82
2022/10/01 10:31:32;;;;;;;4.67;2.17;;;18.90;98.00;;;;;;5045318;28;20486;-83
2022/10/01 10:34:23;;;;;;;4.50;1.80;;;18.60;98.80;;;;;;5052146;28;20483;-83
2022/10/01 10:37:05;;;;;;;5.23;2.53;;;18.50;98.50;;;;;;5041267;28;20463;-83
2022/10/01 10:39:41;;;;;;;5.33;2.13;;;18.30;98.80;;;;;;5063431;28;20527;-83
2022/10/01 10:42:14;;;;;;;2.97;2.00;;;18.20;99.20;;;;;;5077365;28;20456;-84
2022/10/01 10:45:08;;;;;;;4.70;1.90;;;18.10;99.40;;;;;;5066721;28;20601;-85
2022/10/01 10:47:51;;;;;;;3.33;1.80;;;18.00;99.70;;;;;;5072137;28;20558;-84
2022/10/01 10:50:35;;;;;;;5.37;1.67;;;17.70;99.20;;;;;;5069256;28;20468;-82
2022/10/01 10:53:26;;;;;;;2.37;2.17;;;17.70;99.10;;;;;;5079394;28;20463;-84
2022/10/01 10:56:04;;;;;;;5.10;2.00;;;17.70;99.50;;;;;;5059752;28;20476;-83
2022/10/01 10:58:39;;;;;;;3.67;1.87;;;17.60;99.10;;;;;;5066256;28;20471;-83
2022/10/01 11:01:10;;;;;;;5.00;2.30;;;17.70;99.70;;;;;;5073569;28;20448;-83
2022/10/01 11:03:52;;;;;;;2.80;1.63;;;18.00;98.70;;;;;;5075128;28;20529;-84
2022/10/01 11:06:20;;;;;;;3.83;2.17;;;18.10;97.90;;;;;;5054242;28;20444;-83
2022/10/01 11:08:59;;;;;;;1.57;1.40;;;18.10;96.80;;;;;;5070696;28;20455;-84
2022/10/01 11:11:52;;;;;;;6.37;1.97;;;18.30;96.80;;;;;;5072476;28;20445;-84
2022/10/01 11:14:25;;;;;;;2.33;2.00;;;18.50;96.50;;;;;;5062527;28;20546;-84
2022/10/01 11:17:11;;;;;;;2.27;1.70;;;18.70;95.90;;;;;;5087801;28;20464;-84
2022/10/01 11:20:09;;;;;;;3.40;2.03;;;18.70;95.80;;;;;;5054930;28;21911;-83
2022/10/01 11:23:09;;;;;;;4.47;2.60;;;18.80;96.00;;;;;;5057201;28;20462;-83
2022/10/01 11:26:13;;;;;;;4.63;1.50;;;19.00;95.70;;;;;;5065747;28;20460;-81
2022/10/01 11:29:37;;;;;;;3.97;2.23;;;19.20;94.20;;;;;;5072691;28;20531;-84
2022/10/01 11:33:00;;;;;;;4.80;2.17;;;19.10;94.80;;;;;;5064928;28;20448;-84
2022/10/01 11:36:51;;;;;;;;;;;;;;;;;;;;;
2022/10/01 11:39:56;;;;;;;;;;;;;;;;;;;;;
2022/10/01 11:43:02;;;;;;;3.20;1.80;;;18.90;96.10;;;;;;5063957;28;20508;-85
2022/10/01 11:45:57;;;;;;;4.33;2.20;;;18.80;96.90;;;;;;5066477;28;20520;-84
2022/10/01 11:49:13;;;;;;;2.80;1.90;;;18.60;97.60;;;;;;5074794;28;20447;-85
2022/10/01 11:52:51;;;;;;;8.83;2.63;;;18.40;98.30;;;;;;5075282;28;20482;-84
2022/10/01 12:00:05;;;;;;;3.10;1.70;;;17.60;99.30;;;;;;5040244;28;20495;-83
2022/10/01 12:05:57;;;;;;;1.37;1.20;;;17.60;99.90;;;;;;5144101;22;20491;-85
2022/10/01 12:09:24;;;;;;;2.17;1.53;;;17.80;99.70;;;;;;5073408;28;20459;-84
2022/10/01 12:12:14;;;;;;;4.30;2.90;;;18.10;99.40;;;;;;5068909;28;20701;-84
2022/10/01 12:15:12;;;;;;;2.50;2.20;;;18.30;99.90;;;;;;5079506;28;20487;-85
2022/10/01 12:18:02;;;;;;;2.87;2.37;;;18.30;99.90;;;;;;5058872;28;20936;-85
2022/10/01 12:20:54;;;;;;;2.23;1.80;;;18.30;99.90;;;;;;5060534;28;20498;-85
2022/10/01 12:23:52;;;;;;;4.50;2.10;;;18.10;99.90;;;;;;5043092;28;20492;-85
2022/10/01 12:26:45;;;;;;;3.07;2.00;;;17.80;99.50;;;;;;5068619;28;20464;-84
2022/10/01 12:29:59;;;;;;;3.27;1.80;;;17.50;99.90;;;;;;5062159;28;20957;-84
2022/10/01 12:32:54;;;;;;;2.87;1.70;;;17.40;99.90;;;;;;5046757;28;20462;-83
2022/10/01 12:35:37;;;;;;;2.40;2.10;;;17.20;99.90;;;;;;5067960;28;20483;-86
2022/10/01 12:38:42;;;;;;;2.67;2.27;;;16.90;99.90;;;;;;5072001;28;20467;-85
2022/10/01 12:41:37;;;;;;;2.13;1.80;;;16.80;99.90;;;;;;5072645;28;20633;-84
2022/10/01 12:44:49;;;;;;;3.57;1.47;;;16.60;99.90;;;;;;5059200;28;20512;-84
2022/10/01 12:47:47;;;;;;;3.37;1.53;;;16.50;99.90;;;;;;5065813;28;20518;-83
2022/10/01 12:50:46;;;;;;;4.00;1.73;;;16.50;99.90;;;;;;5063218;28;20542;-84
2022/10/01 12:53:46;;;;;;;3.40;1.60;;;16.40;99.90;;;;;;5059623;28;20482;-84
2022/10/01 12:56:45;;;;;;;3.10;2.20;;;16.50;99.90;;;;;;5064852;28;20514;-85
2022/10/01 12:59:49;;;;;;;2.53;2.00;;;17.00;99.90;;;;;;5043805;28;20443;-83
2022/10/01 13:03:19;;;;;;;1.50;1.40;;;17.60;99.90;;;;;;5066607;28;20452;-84
2022/10/01 13:06:44;;;;;;;3.00;1.80;;;18.00;99.40;;;;;;5037537;28;20452;-84
2022/10/01 13:09:54;;;;;;;3.80;1.70;;;18.30;99.30;;;;;;5049053;28;20470;-85
2022/10/01 13:12:38;;;;;;;2.57;1.60;;;18.70;98.70;;;;;;5074911;28;20464;-84
2022/10/01 13:15:30;;;;;;;3.97;1.73;;;18.90;98.00;;;;;;5076266;28;20529;-83
2022/10/01 13:18:40;;;;;;;2.23;1.60;;;18.80;97.60;;;;;;5072278;28;20554;-83
2022/10/01 13:21:32;;;;;;;2.30;2.10;;;18.60;97.90;;;;;;5068215;28;20532;-84
2022/10/01 13:24:13;;;;;;;4.70;2.47;;;18.40;98.50;;;;;;5085985;28;20884;-82
2022/10/01 13:27:04;;;;;;;3.33;2.00;;;18.20;99.10;;;;;;5066542;28;20543;-85
2022/10/01 13:29:45;;;;;;;3.33;2.17;;;18.00;99.30;;;;;;5066886;28;20466;-84
2022/10/01 13:33:12;;;;;;;7.97;2.03;;;17.90;99.90;;;;;;5065664;28;20550;-84
2022/10/01 13:35:53;;;;;;;3.97;2.17;;;17.70;99.90;;;;;;5006905;28;20483;-82
2022/10/01 13:38:45;;;;;;;7.73;2.23;;;17.80;99.90;;;;;;5062333;28;22061;-84
2022/10/01 13:41:38;;;;;;;4.67;2.10;;;17.90;99.90;;;;;;5060609;28;20546;-83
2022/10/01 13:44:30;;;;;;;5.70;2.47;;;18.10;99.90;;;;;;5057072;28;20571;-84
2022/10/01 13:47:12;;;;;;;6.23;2.60;;;18.30;99.90;;;;;;5058231;28;20482;-85
2022/10/01 13:50:05;;;;;;;2.83;2.00;;;18.60;99.90;;;;;;5055582;28;20460;-83
2022/10/01 13:52:37;;;;;;;3.13;1.90;;;18.80;99.90;;;;;;5063943;28;20544;-86
2022/10/01 13:55:23;;;;;;;4.57;2.23;;;19.20;99.90;;;;;;5064551;28;20467;-84
2022/10/01 13:58:02;;;;;;;4.47;2.80;;;19.40;98.70;;;;;;5056724;28;20460;-84
2022/10/01 14:00:34;;;;;;;2.90;2.43;;;19.30;97.10;;;;;;5056815;28;20490;-85
2022/10/01 14:07:27;;;;;;;8.50;2.07;;;19.10;97.60;;;;;;5003094;28;20444;-84
2022/10/01 14:10:23;;;;;;;5.67;2.53;;;19.20;97.50;;;;;;4993691;28;22183;-84
2022/10/01 14:16:06;;;;;;;6.10;1.90;;;19.20;97.40;;;;;;5076561;28;20480;-85
2022/10/01 14:18:41;;;;;;;3.40;1.83;;;19.20;97.40;;;;;;5062468;28;20768;-85
2022/10/01 14:21:41;;;;;;;4.37;2.30;;;19.30;97.60;;;;;;5058199;28;20456;-85
2022/10/01 14:24:48;;;;;;;2.70;2.07;;;19.20;97.20;;;;;;5060480;28;20464;-85
2022/10/01 14:27:42;;;;;;;8.00;2.30;;;19.10;97.00;;;;;;5066530;28;20479;-85
2022/10/01 14:30:22;;;;;;;5.53;2.37;;;19.10;97.30;;;;;;5055821;28;20530;-83
2022/10/01 14:33:37;;;;;;;4.70;2.30;;;19.00;97.30;;;;;;5059285;28;20482;-85
2022/10/01 14:36:18;;;;;;;2.57;1.93;;;19.10;97.60;;;;;;5059049;28;20505;-84
2022/10/01 14:39:12;;;;;;;4.97;2.90;;;19.30;97.60;;;;;;5052647;28;20547;-83
2022/10/01 14:41:46;;;;;;;8.60;3.23;;;19.20;97.00;;;;;;5052348;28;20452;-84
2022/10/01 14:44:33;;;;;;;6.70;3.00;;;19.00;97.30;;;;;;5053116;28;20478;-84
2022/10/01 14:47:21;;;;;;;13.47;4.13;;;18.90;97.50;;;;;;5055054;28;20541;-83
2022/10/01 14:50:11;;;;;;;6.87;3.87;;;18.90;98.10;;;;;;5055870;28;20457;-85
2022/10/01 14:52:57;;;;;;;2.63;2.30;;;19.00;97.50;;;;;;5060726;28;20535;-84
2022/10/01 14:55:42;;;;;;;2.53;2.33;;;19.00;97.20;;;;;;5054249;28;20559;-85
2022/10/01 14:58:39;;;;;;;4.33;2.77;;;18.90;96.40;;;;;;5036682;28;20470;-84
2022/10/01 15:01:22;;;;;;;5.60;2.20;;;18.90;96.70;;;;;;5054890;28;21431;-84
2022/10/01 15:04:13;;;;;;;4.63;2.40;;;18.80;96.60;;;;;;5041548;28;20507;-83
2022/10/01 15:06:48;;;;;;;3.77;2.50;;;18.70;96.60;;;;;;5057094;28;20555;-84
2022/10/01 15:09:34;;;;;;;4.03;3.00;;;18.70;96.80;;;;;;5054261;28;20451;-82
2022/10/01 15:12:18;;;;;;;9.20;3.77;;;18.70;96.70;;;;;;5067443;28;20483;-83
2022/10/01 15:14:55;;;;;;;6.40;2.00;;;18.70;96.80;;;;;;5053700;28;20503;-83
2022/10/01 15:17:35;;;;;;;2.80;2.00;;;18.60;96.50;;;;;;5048640;28;21800;-84
2022/10/01 15:20:12;;;;;;;4.97;2.30;;;18.60;96.50;;;;;;5054581;28;20463;-82
2022/10/01 15:22:54;;;;;;;6.13;2.40;;;18.60;96.70;;;;;;5053526;28;20547;-83
2022/10/01 15:25:32;;;;;;;7.10;2.40;;;18.50;96.30;;;;;;5052092;28;21881;-83
2022/10/01 15:28:34;;;;;;;3.27;2.43;;;18.50;96.20;;;;;;5050376;28;20452;-84
2022/10/01 15:31:35;;;;;;;7.87;3.50;;;18.60;95.40;;;;;;5053507;28;20453;-85
2022/10/01 15:34:07;;;;;;;6.43;2.13;;;18.70;94.70;;;;;;5054782;28;20484;-85
2022/10/01 15:36:40;;;;;;;8.50;2.40;;;18.80;94.10;;;;;;4994886;28;20490;-82
2022/10/01 15:39:36;;;;;;;2.73;1.60;;;18.90;93.90;;;;;;4993108;28;20462;-83
2022/10/01 15:42:35;;;;;;;;;;;;;;;;;;;;;
2022/10/01 15:45:32;;;;;;;6.27;1.70;;;18.90;93.60;;;;;;4993908;28;20553;-85
2022/10/01 15:48:01;;;;;;;3.90;1.77;;;18.90;93.50;;;;;;4994216;28;20785;-85
2022/10/01 15:50:41;;;;;;;4.20;1.83;;;19.00;93.50;;;;;;4994247;28;20469;-84
2022/10/01 15:53:20;;;;;;;5.60;1.73;;;19.10;93.10;;;;;;4994279;28;20582;-84
2022/10/01 15:56:09;;;;;;;5.77;2.10;;;19.10;92.90;;;;;;5051475;28;20506;-84
2022/10/01 15:58:53;;;;;;;5.63;2.47;;;19.20;93.00;;;;;;5036595;28;20468;-84
2022/10/01 16:01:26;;;;;;;5.67;1.83;;;19.20;92.50;;;;;;5053159;28;20538;-83
2022/10/01 16:04:17;;;;;;;4.03;2.27;;;19.20;92.40;;;;;;5057000;28;20479;-84
2022/10/01 16:06:52;;;;;;;4.37;1.60;;;19.10;92.70;;;;;;5051698;28;20460;-84
2022/10/01 16:09:34;;;;;;;;;;;;;;;;;;;;;
2022/10/01 16:12:08;;;;;;;4.83;2.17;;;18.70;93.80;;;;;;5058281;28;20463;-83
2022/10/01 16:14:59;;;;;;;6.63;2.20;;;18.70;94.30;;;;;;5046095;28;20482;-83
2022/10/01 16:17:41;;;;;;;5.07;1.70;;;18.70;94.40;;;;;;5051842;28;20483;-84
2022/10/01 16:20:40;;;;;;;4.60;1.83;;;18.60;94.30;;;;;;5052716;28;20475;-86
2022/10/01 16:23:38;;;;;;;6.90;2.27;;;18.50;94.50;;;;;;5052845;28;20516;-84
2022/10/01 16:26:36;;;;;;;4.07;1.90;;;18.40;94.70;;;;;;5051903;28;20499;-86
2022/10/01 16:29:45;;;;;;;7.27;2.07;;;18.30;94.80;;;;;;5041963;28;20807;-84
2022/10/01 16:32:20;;;;;;;5.07;2.30;;;18.20;94.90;;;;;;5029625;28;20452;-82
2022/10/01 16:35:20;;;;;;;7.20;2.10;;;18.10;94.80;;;;;;5055997;28;21107;-84
2022/10/01 16:37:56;;;;;;;8.27;2.57;;;18.10;95.20;;;;;;5055590;28;20483;-83
2022/10/01 16:40:47;;;;;;;6.40;2.10;;;18.00;95.10;;;;;;5051851;28;20537;-84
2022/10/01 16:43:23;;;;;;;4.30;2.23;;;17.90;95.10;;;;;;5055016;28;20499;-83
2022/10/01 16:46:03;;;;;;;5.77;2.60;;;18.00;95.80;;;;;;5051992;28;20468;-82
2022/10/01 16:48:33;;;;;;;9.17;4.57;;;17.90;95.40;;;;;;5053047;28;20463;-85
2022/10/01 16:51:03;;;;;;;6.53;2.43;;;17.80;95.50;;;;;;5051712;28;20672;-83
2022/10/01 16:53:32;;;;;;;4.90;2.70;;;17.80;95.60;;;;;;5048392;28;21005;-83
2022/10/01 16:56:09;;;;;;;4.57;2.17;;;17.70;95.70;;;;;;5051235;28;20570;-83
2022/10/01 16:58:43;;;;;;;4.57;2.90;;;17.80;95.80;;;;;;5048577;28;21039;-83
2022/10/01 17:01:17;;;;;;;6.87;3.40;;;17.70;95.80;;;;;;5057542;28;20451;-84
2022/10/01 17:04:09;;;;;;;8.10;3.40;;;17.60;95.90;;;;;;5055850;28;20586;-83
2022/10/01 17:06:36;;;;;;;7.63;3.00;;;17.60;96.00;;;;;;5039330;28;20460;-83
2022/10/01 17:09:10;;;;;;;6.03;2.43;;;17.60;96.10;;;;;;5055575;28;20596;-82
2022/10/01 17:11:42;;;;;;;5.37;2.07;;;17.50;96.00;;;;;;5053156;28;20554;-83
2022/10/01 17:14:26;;;;;;;5.77;2.70;;;17.50;96.10;;;;;;5052711;28;20512;-84
2022/10/01 17:16:59;;;;;;;6.03;2.80;;;17.40;95.80;;;;;;5051183;28;21402;-83
2022/10/01 17:19:32;;;;;;;5.07;2.40;;;17.40;95.80;;;;;;5056335;28;20431;-83
2022/10/01 17:22:03;;;;;;;5.27;2.40;;;17.40;95.60;;;;;;5055993;28;20486;-84
2022/10/01 17:24:39;;;;;;;6.13;2.40;;;17.30;95.60;;;;;;5059840;28;20468;-83
2022/10/01 17:27:26;;;;;;;6.80;2.27;;;17.40;95.70;;;;;;5057415;28;22084;-86
2022/10/01 17:30:10;;;;;;;7.77;3.43;;;17.30;95.80;;;;;;5069371;28;20529;-85
2022/10/01 17:32:54;;;;;;;6.43;2.43;;;17.30;95.80;;;;;;5069556;28;20433;-84
2022/10/01 17:35:34;;;;;;;9.50;2.73;;;17.30;96.00;;;;;;5074861;28;20443;-85
2022/10/01 17:38:13;;;;;;;5.90;2.70;;;17.30;95.90;;;;;;5058333;28;20679;-84
2022/10/01 17:40:58;;;;;;;7.73;2.97;;;17.30;95.90;;;;;;5059061;28;20460;-83
2022/10/01 17:43:41;;;;;;;6.57;3.00;;;17.20;95.90;;;;;;5059304;28;21021;-84
2022/10/01 17:46:36;;;;;;;3.87;2.40;;;17.20;96.00;;;;;;5058853;28;20440;-83
2022/10/01 17:49:59;;;;;;;6.20;2.37;;;17.20;96.10;;;;;;5064905;28;20452;-84
2022/10/01 17:53:05;;;;;;;7.30;2.50;;;17.20;96.20;;;;;;4988176;28;20435;-84
2022/10/01 17:55:41;;;;;;;7.70;3.00;;;17.10;96.30;;;;;;5058131;28;20462;-84
2022/10/01 17:58:13;;;;;;;7.33;3.30;;;17.10;96.50;;;;;;5057316;28;20491;-84
2022/10/01 18:00:57;;;;;;;5.07;2.83;;;17.00;96.60;;;;;;5060667;28;20451;-85